Time;durP1;ratioP1;P1;durP2;ratioP2;P2;SDS_P1;SDS_P2;PMS_P1;PMS_P2;Temp;Humidity;BMP_temperature;BMP_pressure;BME280_temperature;BME280_humidity;BME280_pressure;Samples;Min_cycle;Max_cycle;Signal;HPM_P1;HPM_P2
2023/09/22 05:30:06;;;;;;;0.43;0.30;;;;;;;;;;20855539;28;20241;-82
2023/09/22 05:40:13;;;;;;;2.73;0.70;;;;;;;;;;20829427;28;20333;-82
2023/09/22 05:50:14;;;;;;;0.73;0.40;;;;;;;;;;20917702;28;20303;-82
2023/09/22 06:00:16;;;;;;;0.30;0.30;;;;;;;;;;20839798;28;20230;-82
2023/09/22 06:10:18;;;;;;;0.77;0.50;;;;;;;;;;20880086;28;20301;-79
2023/09/22 06:20:20;;;;;;;1.30;0.40;;;;;;;;;;20868472;28;20771;-80
2023/09/22 06:30:23;;;;;;;0.30;0.30;;;;;;;;;;20865575;28;20296;-81
2023/09/22 06:40:24;;;;;;;1.20;0.43;;;;;;;;;;20794977;28;20300;-81
2023/09/22 06:50:29;;;;;;;0.53;0.40;;;;;;;;;;20821676;28;20223;-82
2023/09/22 07:00:30;;;;;;;0.67;0.40;;;;;;;;;;20819748;28;20221;-82
2023/09/22 07:10:35;;;;;;;2.10;0.40;;;;;;;;;;20848733;28;20587;-81
2023/09/22 07:20:37;;;;;;;1.77;0.53;;;;;;;;;;20781967;28;20592;-80
2023/09/22 07:30:39;;;;;;;0.30;0.30;;;;;;;;;;20828353;28;20311;-81
2023/09/22 07:40:41;;;;;;;1.80;0.30;;;;;;;;;;20797118;28;20280;-82
2023/09/22 07:50:43;;;;;;;1.23;0.30;;;;;;;;;;20828834;28;20239;-82
2023/09/22 08:00:46;;;;;;;0.50;0.30;;;;;;;;;;20818271;28;20283;-82
2023/09/22 08:10:48;;;;;;;2.70;0.43;;;;;;;;;;20832760;28;20238;-81
2023/09/22 08:20:49;;;;;;;0.57;0.30;;;;;;;;;;20831161;28;20215;-81
2023/09/22 08:30:55;;;;;;;0.20;0.20;;;;;;;;;;20805152;28;20234;-83
2023/09/22 08:40:58;;;;;;;0.30;0.30;;;;;;;;;;20847718;28;20206;-82
2023/09/22 08:51:00;;;;;;;0.60;0.30;;;;;;;;;;20841433;28;20226;-82
2023/09/22 09:01:02;;;;;;;0.67;0.40;;;18.00;99.90;;;;;;20803531;28;20620;-82
2023/09/22 09:11:09;;;;;;;0.87;0.30;;;18.60;99.90;;;;;;20805975;28;20269;-82
2023/09/22 09:21:14;;;;;;;0.40;0.30;;;;;;;;;;20832124;28;20234;-82
2023/09/22 09:31:17;;;;;;;0.97;0.30;;;;;;;;;;20833579;28;20274;-81
2023/09/22 09:41:21;;;;;;;1.53;0.63;;;19.90;99.90;;;;;;20821313;28;20208;-83
2023/09/22 09:51:24;;;;;;;0.33;0.30;;;;;;;;;;20822470;28;20250;-81
2023/09/22 10:01:27;;;;;;;0.33;0.23;;;;;;;;;;20827946;28;20253;-83
2023/09/22 10:11:29;;;;;;;0.80;0.30;;;19.60;99.90;;;;;;20836654;28;20720;-82
2023/09/22 10:21:34;;;;;;;0.40;0.20;;;;;;;;;;20858720;28;20215;-82
2023/09/22 10:31:56;;;;;;;0.57;0.37;;;;;;;;;;20840408;28;20224;-81
2023/09/22 10:42:01;;;;;;;0.97;0.30;;;;;;;;;;20886559;28;20212;-81
2023/09/22 10:52:03;;;;;;;0.30;0.30;;;;;;;;;;20852452;28;20695;-82
2023/09/22 11:02:05;;;;;;;0.30;0.27;;;;;;;;;;20827749;28;20227;-82
2023/09/22 11:12:07;;;;;;;0.40;0.30;;;;;;;;;;20855965;28;20231;-81
2023/09/22 11:22:09;;;;;;;0.27;0.27;;;;;;;;;;20833717;28;20225;-82
2023/09/22 11:32:11;;;;;;;1.03;0.50;;;;;;;;;;20848037;28;20236;-82
2023/09/22 11:42:19;;;;;;;0.83;0.37;;;;;;;;;;20830353;28;20298;-82
2023/09/22 11:52:30;;;;;;;1.97;0.30;;;;;;;;;;20810747;28;20231;-84
2023/09/22 12:02:32;;;;;;;0.77;0.30;;;;;;;;;;20838745;28;20285;-82
2023/09/22 12:12:34;;;;;;;0.93;0.40;;;;;;;;;;20891742;28;20296;-81
2023/09/22 12:22:36;;;;;;;0.93;0.40;;;;;;;;;;20824479;28;20560;-82
2023/09/22 12:32:38;;;;;;;0.37;0.30;;;;;;;;;;20848748;28;20397;-81
2023/09/22 12:42:40;;;;;;;0.97;0.40;;;;;;;;;;20825508;28;20271;-80
2023/09/22 12:52:42;;;;;;;0.70;0.40;;;;;;;;;;20830903;28;20234;-82
2023/09/22 13:02:44;;;;;;;0.93;0.30;;;;;;;;;;20816442;28;20639;-82
2023/09/22 13:12:45;;;;;;;1.90;0.70;;;;;;;;;;20807326;28;20229;-85
2023/09/22 13:22:47;;;;;;;0.50;0.33;;;;;;;;;;20822361;28;20240;-85
2023/09/22 13:32:50;;;;;;;0.70;0.40;;;;;;;;;;20799111;28;20777;-84
2023/09/22 13:42:52;;;;;;;1.37;0.50;;;;;;;;;;20820361;28;20275;-84
2023/09/22 13:52:54;;;;;;;0.97;0.60;;;20.00;99.90;;;;;;20854968;28;20236;-84
2023/09/22 14:02:59;;;;;;;1.57;0.70;;;;;;;;;;20812098;28;20219;-84
2023/09/22 14:13:01;;;;;;;3.00;0.47;;;;;;;;;;20824232;28;20235;-82
2023/09/22 14:23:03;;;;;;;0.77;0.33;;;;;;;;;;20838654;28;20777;-83
2023/09/22 14:33:05;;;;;;;0.43;0.40;;;;;;;;;;20871822;28;20295;-85
2023/09/22 14:43:07;;;;;;;1.03;0.50;;;21.40;99.90;;;;;;20811977;28;20226;-86
2023/09/22 14:53:09;;;;;;;1.20;0.47;;;;;;;;;;20780495;28;20237;-84
2023/09/22 15:26:06;;;;;;;1.33;0.30;;;;;;;;;;20836438;28;20230;-84
2023/09/22 15:36:08;;;;;;;0.47;0.33;;;;;;;;;;20874655;28;20303;-86
2023/09/22 15:46:10;;;;;;;1.13;0.50;;;;;;;;;;20818720;28;20224;-85
2023/09/22 15:56:12;;;;;;;1.20;0.50;;;;;;;;;;20834492;28;20239;-84
2023/09/22 16:06:14;;;;;;;0.70;0.47;;;;;;;;;;20856823;28;20256;-84
2023/09/22 16:16:15;;;;;;;1.47;0.50;;;;;;;;;;20843339;28;20225;-83
2023/09/22 16:26:17;;;;;;;0.33;0.27;;;;;;;;;;20788961;28;20292;-84
2023/09/22 16:36:19;;;;;;;3.07;0.40;;;;;;;;;;20820325;28;20780;-84
2023/09/22 16:46:21;;;;;;;0.83;0.40;;;;;;;;;;20817754;28;20270;-84
2023/09/22 16:56:24;;;;;;;0.97;0.33;;;;;;;;;;20844854;28;20277;-84
2023/09/22 17:06:26;;;;;;;3.07;0.60;;;;;;;;;;20831395;28;20236;-83
2023/09/22 17:16:27;;;;;;;0.70;0.30;;;;;;;;;;20836001;28;20229;-83
2023/09/22 17:26:30;;;;;;;0.80;0.40;;;;;;;;;;20811300;28;20596;-84
2023/09/22 17:36:31;;;;;;;1.57;0.60;;;;;;;;;;20825430;28;20296;-84
2023/09/22 17:46:34;;;;;;;0.43;0.30;;;;;;;;;;20795478;28;20280;-83
2023/09/22 17:56:36;;;;;;;0.20;0.20;;;;;;;;;;20801453;28;20852;-83
2023/09/22 18:06:41;;;;;;;1.23;0.40;;;;;;;;;;20840410;28;20702;-83
2023/09/22 18:16:43;;;;;;;0.50;0.40;;;;;;;;;;20843044;28;20225;-82
2023/09/22 18:26:45;;;;;;;0.73;0.40;;;;;;;;;;20836398;28;20243;-83
2023/09/22 18:36:46;;;;;;;0.50;0.30;;;;;;;;;;20846718;28;20278;-83
2023/09/22 18:46:50;;;;;;;0.23;0.23;;;;;;;;;;20858556;28;20231;-83
2023/09/22 18:56:51;;;;;;;0.33;0.30;;;;;;;;;;20857388;28;20235;-83
2023/09/22 19:06:53;;;;;;;1.00;0.30;;;;;;;;;;20810643;28;20206;-83
2023/09/22 19:16:55;;;;;;;0.23;0.23;;;;;;;;;;20820546;28;20276;-84
2023/09/22 19:26:57;;;;;;;1.37;0.50;;;;;;;;;;20841304;28;20230;-84
2023/09/22 19:36:58;;;;;;;0.67;0.33;;;;;;;;;;20803815;28;20637;-82
2023/09/22 19:47:00;;;;;;;0.57;0.30;;;;;;;;;;20836742;28;20320;-82
2023/09/22 19:57:02;;;;;;;0.30;0.30;;;;;;;;;;20866522;28;20307;-85
2023/09/22 20:07:05;;;;;;;0.30;0.30;;;;;;;;;;20818093;28;20222;-85
2023/09/22 20:17:07;;;;;;;0.90;0.40;;;;;;;;;;20824062;28;20234;-84
2023/09/22 20:27:09;;;;;;;0.20;0.20;;;;;;;;;;20843091;28;20234;-83
2023/09/22 20:37:10;;;;;;;0.60;0.27;;;;;;;;;;20833499;28;20721;-87
2023/09/22 20:47:12;;;;;;;0.53;0.30;;;;;;;;;;20802344;28;20222;-85
2023/09/22 20:57:14;;;;;;;0.20;0.20;;;;;;;;;;20817237;28;20237;-87
2023/09/22 21:07:16;;;;;;;0.30;0.20;;;;;;;;;;20810488;28;20569;-85
2023/09/22 21:17:18;;;;;;;0.50;0.20;;;;;;;;;;20793573;28;20222;-84
2023/09/22 21:27:20;;;;;;;0.20;0.20;;;;;;;;;;20843024;28;20227;-86
2023/09/22 21:37:22;;;;;;;0.37;0.30;;;;;;;;;;20806526;28;20284;-85
2023/09/22 21:47:24;;;;;;;0.93;0.30;;;;;;;;;;20806502;28;20222;-85
2023/09/22 21:57:25;;;;;;;0.73;0.30;;;;;;;;;;20850800;28;20265;-86
2023/09/22 22:07:30;;;;;;;0.57;0.20;;;;;;;;;;20799643;28;20697;-85
2023/09/22 22:17:33;;;;;;;0.97;0.30;;;;;;;;;;20805852;28;20234;-83
2023/09/22 22:27:34;;;;;;;0.20;0.20;;;;;;;;;;20803774;28;20379;-82
2023/09/22 22:37:36;;;;;;;0.20;0.20;;;;;;;;;;20844241;28;20593;-84
2023/09/22 22:47:39;;;;;;;0.20;0.20;;;;;;;;;;20873914;28;20299;-83
2023/09/22 22:57:40;;;;;;;0.50;0.30;;;;;;;;;;20810055;28;20271;-84
2023/09/22 23:07:42;;;;;;;0.20;0.20;;;;;;;;;;20807524;28;20284;-83
2023/09/22 23:17:44;;;;;;;0.40;0.30;;;;;;;;;;20835862;28;20275;-84
2023/09/22 23:27:46;;;;;;;0.27;0.27;;;;;;;;;;20809871;28;20301;-84
2023/09/22 23:37:47;;;;;;;0.77;0.30;;;;;;;;;;20824759;28;20260;-84
2023/09/22 23:47:49;;;;;;;0.77;0.30;;;;;;;;;;20864967;28;20292;-85
2023/09/22 23:57:51;;;;;;;0.40;0.20;;;;;;;;;;20782164;28;20601;-84
